createdAt,value
2018-12-12T00:00:24.667Z,0
2018-12-12T00:01:05.432Z,0
2018-12-12T00:01:46.246Z,0
2018-12-12T00:02:27.037Z,0
2018-12-12T00:03:07.771Z,0
2018-12-12T00:03:48.466Z,0
2018-12-12T00:04:29.266Z,0
2018-12-12T00:05:10.080Z,0
2018-12-12T00:05:50.949Z,0
2018-12-12T00:06:31.729Z,0
2018-12-12T00:07:12.520Z,0
2018-12-12T00:07:53.358Z,0
2018-12-12T00:08:34.182Z,0
2018-12-12T00:09:15.188Z,0
2018-12-12T00:09:55.930Z,0
2018-12-12T00:10:36.767Z,0
2018-12-12T00:11:17.558Z,0
2018-12-12T00:11:58.398Z,0
2018-12-12T00:12:39.262Z,0
2018-12-12T00:13:20.021Z,0
2018-12-12T00:14:00.754Z,0
2018-12-12T00:14:41.478Z,0
2018-12-12T00:15:22.239Z,0
2018-12-12T00:16:03.085Z,0
2018-12-12T00:16:43.804Z,0
2018-12-12T00:17:24.565Z,0
2018-12-12T00:18:05.402Z,0
2018-12-12T00:18:46.181Z,0
2018-12-12T00:19:27.035Z,0
2018-12-12T00:20:07.790Z,0
2018-12-12T00:20:48.584Z,0
2018-12-12T00:21:29.401Z,0
2018-12-12T00:22:10.060Z,0
2018-12-12T00:22:50.763Z,0
2018-12-12T00:23:31.514Z,0
2018-12-12T00:24:12.266Z,0
2018-12-12T00:24:53.008Z,0
2018-12-12T00:25:33.761Z,0
2018-12-12T00:26:14.535Z,0
2018-12-12T00:26:55.346Z,0
2018-12-12T00:27:36.174Z,0
2018-12-12T00:28:16.931Z,0
2018-12-12T00:28:57.664Z,0
2018-12-12T00:29:38.414Z,0
2018-12-12T00:30:19.147Z,0
2018-12-12T00:31:00.017Z,0
2018-12-12T00:31:40.771Z,0
2018-12-12T00:32:21.547Z,0
2018-12-12T00:33:02.305Z,0
2018-12-12T00:33:43.046Z,0
2018-12-12T00:34:23.877Z,0
2018-12-12T00:35:04.617Z,0
2018-12-12T00:35:45.363Z,0
2018-12-12T00:36:26.105Z,0
2018-12-12T00:37:06.901Z,0
2018-12-12T00:37:47.688Z,0
2018-12-12T00:38:28.552Z,0
2018-12-12T00:39:09.264Z,0
2018-12-12T00:39:49.987Z,0
2018-12-12T00:40:30.706Z,0
2018-12-12T00:41:11.523Z,0
2018-12-12T00:41:52.407Z,0
2018-12-12T00:42:33.097Z,0
2018-12-12T00:43:13.922Z,0
2018-12-12T00:43:54.711Z,0
2018-12-12T00:44:35.524Z,0
2018-12-12T00:45:16.277Z,0
2018-12-12T00:45:57.054Z,0
2018-12-12T00:46:37.771Z,0
2018-12-12T00:47:18.531Z,0
2018-12-12T00:47:59.341Z,0
2018-12-12T00:48:40.118Z,0
2018-12-12T00:49:20.969Z,0
2018-12-12T00:50:01.720Z,0
2018-12-12T00:50:42.454Z,0
2018-12-12T00:51:23.239Z,0
2018-12-12T00:52:03.954Z,0
2018-12-12T00:52:44.690Z,0
2018-12-12T00:53:25.404Z,0
2018-12-12T00:54:06.154Z,0
2018-12-12T00:54:46.944Z,0
2018-12-12T00:55:27.652Z,0
2018-12-12T00:56:08.454Z,0
2018-12-12T00:56:49.277Z,0
2018-12-12T00:57:30.071Z,0
2018-12-12T00:58:10.846Z,0
2018-12-12T00:58:51.607Z,0
2018-12-12T00:59:32.349Z,0
2018-12-12T01:00:13.181Z,0
2018-12-12T01:00:53.891Z,0
2018-12-12T01:01:34.683Z,0
2018-12-12T01:02:15.420Z,0
2018-12-12T01:02:56.156Z,0
2018-12-12T01:03:36.979Z,0
2018-12-12T01:04:17.816Z,0
2018-12-12T01:04:58.584Z,0
2018-12-12T01:05:39.338Z,0
2018-12-12T01:06:20.044Z,0
2018-12-12T01:07:00.817Z,0
2018-12-12T01:07:41.649Z,0
2018-12-12T01:08:22.406Z,0
2018-12-12T01:09:03.124Z,0
2018-12-12T01:09:43.949Z,0
2018-12-12T01:10:24.844Z,0
2018-12-12T01:11:05.668Z,0
2018-12-12T01:11:46.393Z,0
2018-12-12T01:12:27.132Z,0
2018-12-12T01:13:07.835Z,0
2018-12-12T01:13:48.634Z,0
2018-12-12T01:14:29.442Z,0
2018-12-12T01:15:10.243Z,0
2018-12-12T01:15:50.991Z,0
2018-12-12T01:16:31.698Z,0
2018-12-12T01:17:12.452Z,0
2018-12-12T01:17:53.222Z,0
2018-12-12T01:18:33.991Z,0
2018-12-12T01:19:14.778Z,0
2018-12-12T01:19:55.488Z,0
2018-12-12T01:20:36.329Z,0
2018-12-12T01:21:17.157Z,0
2018-12-12T01:21:57.946Z,0
2018-12-12T01:22:38.649Z,0
2018-12-12T01:23:19.381Z,0
2018-12-12T01:24:00.123Z,0
2018-12-12T01:24:40.858Z,0
2018-12-12T01:25:21.703Z,0
2018-12-12T01:26:02.393Z,0
2018-12-12T01:26:43.106Z,0
2018-12-12T01:27:23.959Z,0
2018-12-12T01:28:04.709Z,0
2018-12-12T01:28:45.520Z,0
2018-12-12T01:29:26.248Z,0
2018-12-12T01:30:07.079Z,0
2018-12-12T01:30:47.879Z,0
2018-12-12T01:31:28.593Z,0
2018-12-12T01:32:09.317Z,0
2018-12-12T01:32:50.095Z,0
2018-12-12T01:33:30.941Z,0
2018-12-12T01:34:11.740Z,0
2018-12-12T01:34:52.507Z,0
2018-12-12T01:35:33.296Z,0
2018-12-12T01:36:14.092Z,0
2018-12-12T01:36:54.941Z,0
2018-12-12T01:37:35.676Z,0
2018-12-12T01:38:16.371Z,0
2018-12-12T01:38:57.086Z,0
2018-12-12T01:39:37.805Z,0
2018-12-12T01:40:18.604Z,0
2018-12-12T01:40:59.409Z,0
2018-12-12T01:41:40.230Z,0
2018-12-12T01:42:20.949Z,0
2018-12-12T01:43:01.711Z,0
2018-12-12T01:43:42.554Z,0
2018-12-12T01:44:23.302Z,0
2018-12-12T01:45:04.036Z,0
2018-12-12T01:45:44.758Z,0
2018-12-12T01:46:25.554Z,0
2018-12-12T01:47:06.374Z,0
2018-12-12T01:47:47.077Z,0
2018-12-12T01:48:27.798Z,0
2018-12-12T01:49:08.623Z,0
2018-12-12T01:49:49.387Z,0
2018-12-12T01:50:30.166Z,0
2018-12-12T01:51:10.902Z,0
2018-12-12T01:51:51.659Z,0
2018-12-12T01:52:32.483Z,0
2018-12-12T01:53:13.261Z,0
2018-12-12T01:53:53.999Z,0
2018-12-12T01:54:34.734Z,0
2018-12-12T01:55:15.535Z,0
2018-12-12T01:55:56.355Z,0
2018-12-12T01:56:37.126Z,0
2018-12-12T01:57:17.905Z,0
2018-12-12T01:57:58.606Z,0
2018-12-12T01:58:39.357Z,0
2018-12-12T01:59:20.095Z,0
2018-12-12T02:00:00.918Z,0
2018-12-12T02:00:41.645Z,0
2018-12-12T02:01:22.407Z,0
2018-12-12T02:02:03.199Z,0
2018-12-12T02:02:43.993Z,0
2018-12-12T02:03:24.784Z,0
2018-12-12T02:04:05.484Z,0
2018-12-12T02:04:46.232Z,0
2018-12-12T02:05:27.005Z,0
2018-12-12T02:06:07.729Z,0
2018-12-12T02:06:48.487Z,0
2018-12-12T02:07:29.207Z,0
2018-12-12T02:08:09.934Z,0
2018-12-12T02:08:50.774Z,0
2018-12-12T02:09:31.449Z,0
2018-12-12T02:10:12.201Z,0
2018-12-12T02:10:52.995Z,0
2018-12-12T02:11:33.772Z,0
2018-12-12T02:12:14.602Z,0
2018-12-12T02:12:55.277Z,0
2018-12-12T02:13:36.076Z,0
2018-12-12T02:14:16.767Z,0
2018-12-12T02:14:57.538Z,0
2018-12-12T02:15:38.367Z,0
2018-12-12T02:16:19.148Z,0
2018-12-12T02:16:59.877Z,0
2018-12-12T02:17:40.636Z,0
2018-12-12T02:18:21.367Z,0
2018-12-12T02:19:02.158Z,0
2018-12-12T02:19:42.876Z,0
2018-12-12T02:20:23.557Z,0
2018-12-12T02:21:04.301Z,0
2018-12-12T02:21:45.210Z,0
2018-12-12T02:22:26.013Z,0
2018-12-12T02:23:06.788Z,0
2018-12-12T02:23:47.581Z,0
2018-12-12T02:24:28.338Z,0
2018-12-12T02:25:09.032Z,0
2018-12-12T02:25:49.847Z,0
2018-12-12T02:26:30.683Z,0
2018-12-12T02:27:11.415Z,0
2018-12-12T02:27:52.165Z,0
2018-12-12T02:28:32.982Z,0
2018-12-12T02:29:13.772Z,0
2018-12-12T02:29:54.560Z,0
2018-12-12T02:30:35.354Z,0
2018-12-12T02:31:16.097Z,0
2018-12-12T02:31:56.810Z,0
2018-12-12T02:32:37.594Z,0
2018-12-12T02:33:18.359Z,0
2018-12-12T02:33:59.147Z,0
2018-12-12T02:34:39.845Z,0
2018-12-12T02:35:20.637Z,0
2018-12-12T02:36:01.487Z,0
2018-12-12T02:36:42.187Z,0
2018-12-12T02:37:22.923Z,0
2018-12-12T02:38:03.654Z,0
2018-12-12T02:38:44.397Z,0
2018-12-12T02:39:25.229Z,0
2018-12-12T02:40:05.952Z,0
2018-12-12T02:40:46.687Z,0
2018-12-12T02:41:27.491Z,0
2018-12-12T02:42:08.264Z,0
2018-12-12T02:42:49.080Z,0
2018-12-12T02:43:29.809Z,0
2018-12-12T02:44:10.619Z,0
2018-12-12T02:44:51.410Z,0
2018-12-12T02:45:32.140Z,0
2018-12-12T02:46:12.833Z,0
2018-12-12T02:46:53.564Z,0
2018-12-12T02:47:34.384Z,0
2018-12-12T02:48:15.198Z,0
2018-12-12T02:48:55.996Z,0
2018-12-12T02:49:36.755Z,0
2018-12-12T02:50:17.493Z,0
2018-12-12T02:50:58.204Z,0
2018-12-12T02:51:38.939Z,0
2018-12-12T02:52:19.791Z,0
2018-12-12T02:53:00.467Z,0
2018-12-12T02:53:41.248Z,0
2018-12-12T02:54:22.077Z,0
2018-12-12T02:55:02.857Z,0
2018-12-12T02:55:43.677Z,0
2018-12-12T02:56:24.350Z,0
2018-12-12T02:57:05.098Z,0
2018-12-12T02:57:45.824Z,0
2018-12-12T02:58:26.713Z,0
2018-12-12T02:59:07.535Z,0
2018-12-12T02:59:48.285Z,0
2018-12-12T03:00:29.021Z,0
2018-12-12T03:01:09.790Z,0
2018-12-12T03:01:50.578Z,0
2018-12-12T03:02:31.294Z,0
2018-12-12T03:03:12.005Z,0
2018-12-12T03:03:52.777Z,0
2018-12-12T03:04:33.585Z,0
2018-12-12T03:05:14.338Z,0
2018-12-12T03:05:55.145Z,0
2018-12-12T03:06:35.888Z,0
2018-12-12T03:07:16.597Z,0
2018-12-12T03:07:57.269Z,0
2018-12-12T03:08:37.960Z,0
2018-12-12T03:09:18.749Z,0
2018-12-12T03:09:59.498Z,0
2018-12-12T03:10:40.190Z,0
2018-12-12T03:11:20.952Z,0
2018-12-12T03:12:01.760Z,0
2018-12-12T03:12:42.562Z,0
2018-12-12T03:13:23.313Z,0
2018-12-12T03:14:04.030Z,0
2018-12-12T03:14:44.833Z,0
2018-12-12T03:15:25.566Z,0
2018-12-12T03:16:06.325Z,0
2018-12-12T03:16:47.027Z,0
2018-12-12T03:17:27.814Z,0
2018-12-12T03:18:08.584Z,0
2018-12-12T03:18:49.342Z,0
2018-12-12T03:19:30.073Z,0
2018-12-12T03:20:10.880Z,0
2018-12-12T03:20:51.689Z,0
2018-12-12T03:21:32.419Z,0
2018-12-12T03:22:13.128Z,0
2018-12-12T03:22:53.831Z,0
2018-12-12T03:23:34.537Z,0
2018-12-12T03:24:15.363Z,0
2018-12-12T03:24:56.103Z,0
2018-12-12T03:25:36.942Z,0
2018-12-12T03:26:17.692Z,0
2018-12-12T03:26:58.399Z,0
2018-12-12T03:27:39.213Z,0
2018-12-12T03:28:19.963Z,0
2018-12-12T03:29:00.664Z,0
2018-12-12T03:29:41.398Z,0
2018-12-12T03:30:22.100Z,0
2018-12-12T03:31:03.006Z,0
2018-12-12T03:31:43.744Z,0
2018-12-12T03:32:24.484Z,0
2018-12-12T03:33:05.247Z,0
2018-12-12T03:33:45.966Z,0
2018-12-12T03:34:26.682Z,0
2018-12-12T03:35:07.464Z,0
2018-12-12T03:35:48.217Z,0
2018-12-12T03:36:28.997Z,0
2018-12-12T03:37:09.826Z,0
2018-12-12T03:37:50.571Z,0
2018-12-12T03:38:31.435Z,0
2018-12-12T03:39:12.219Z,0
2018-12-12T03:39:52.927Z,0
2018-12-12T03:40:33.674Z,0
2018-12-12T03:41:14.393Z,0
2018-12-12T03:41:55.236Z,0
2018-12-12T03:42:36.058Z,0
2018-12-12T03:43:16.826Z,0
2018-12-12T03:43:57.545Z,0
2018-12-12T03:44:38.336Z,0
2018-12-12T03:45:19.133Z,0
2018-12-12T03:45:59.884Z,0
2018-12-12T03:46:41.141Z,0
2018-12-12T03:47:21.876Z,0
2018-12-12T03:48:02.684Z,0
2018-12-12T03:48:43.436Z,0
2018-12-12T03:49:24.195Z,0
2018-12-12T03:50:04.959Z,0
2018-12-12T03:50:45.732Z,0
2018-12-12T03:51:26.563Z,0
2018-12-12T03:52:07.329Z,0
2018-12-12T03:52:48.058Z,0
2018-12-12T03:53:28.887Z,0
2018-12-12T03:54:09.622Z,0
2018-12-12T03:54:50.343Z,0
2018-12-12T03:55:31.101Z,0
2018-12-12T03:56:11.778Z,0
2018-12-12T03:56:52.555Z,0
2018-12-12T03:57:33.346Z,0
2018-12-12T03:58:14.146Z,0
2018-12-12T03:58:54.947Z,0
2018-12-12T03:59:35.680Z,0
2018-12-12T04:00:16.410Z,0
2018-12-12T04:00:57.178Z,0
2018-12-12T04:01:37.947Z,0
2018-12-12T04:02:18.674Z,0
2018-12-12T04:02:59.405Z,0
2018-12-12T04:03:40.197Z,0
2018-12-12T04:04:21.028Z,0
2018-12-12T04:05:01.805Z,0
2018-12-12T04:05:42.566Z,0
2018-12-12T04:06:23.310Z,0
2018-12-12T04:07:04.167Z,0
2018-12-12T04:07:44.929Z,0
2018-12-12T04:08:25.660Z,0
2018-12-12T04:09:06.387Z,0
2018-12-12T04:09:47.118Z,0
2018-12-12T04:10:27.991Z,0
2018-12-12T04:11:08.714Z,0
2018-12-12T04:11:49.448Z,0
2018-12-12T04:12:30.261Z,0
2018-12-12T04:13:11.119Z,0
2018-12-12T04:13:51.937Z,0
2018-12-12T04:14:32.682Z,0
2018-12-12T04:15:13.393Z,0
2018-12-12T04:15:54.101Z,0
2018-12-12T04:16:34.919Z,0
2018-12-12T04:17:15.656Z,0
2018-12-12T04:17:56.472Z,0
2018-12-12T04:18:37.174Z,0
2018-12-12T04:19:17.854Z,0
2018-12-12T04:19:58.730Z,0
2018-12-12T04:20:39.504Z,0
2018-12-12T04:21:20.229Z,0
2018-12-12T04:22:00.964Z,0
2018-12-12T04:22:41.728Z,0
2018-12-12T04:23:22.524Z,0
2018-12-12T04:24:03.290Z,0
2018-12-12T04:24:44.048Z,0
2018-12-12T04:25:24.880Z,0
2018-12-12T04:26:05.664Z,0
2018-12-12T04:26:46.464Z,0
2018-12-12T04:27:27.170Z,0
2018-12-12T04:28:07.932Z,0
2018-12-12T04:28:48.765Z,0
2018-12-12T04:29:29.604Z,0
2018-12-12T04:30:10.474Z,0
2018-12-12T04:30:51.285Z,0
2018-12-12T04:31:32.050Z,0
2018-12-12T04:32:13.107Z,0
2018-12-12T04:32:53.989Z,0
2018-12-12T04:33:34.788Z,0
2018-12-12T04:34:15.489Z,0
2018-12-12T04:34:56.382Z,0
2018-12-12T04:35:37.199Z,0
2018-12-12T04:36:18.018Z,0
2018-12-12T04:36:58.825Z,0
2018-12-12T04:37:39.559Z,0
2018-12-12T04:38:20.441Z,0
2018-12-12T04:39:01.226Z,0
2018-12-12T04:39:42.017Z,0
2018-12-12T04:40:22.789Z,0
2018-12-12T04:41:03.469Z,0
2018-12-12T04:41:44.172Z,0
2018-12-12T04:42:24.939Z,0
2018-12-12T04:43:05.736Z,0
2018-12-12T04:43:46.525Z,0
2018-12-12T04:44:27.329Z,0
2018-12-12T04:45:08.062Z,0
2018-12-12T04:45:48.875Z,0
2018-12-12T04:46:29.665Z,0
2018-12-12T04:47:10.381Z,0
2018-12-12T04:47:51.157Z,0
2018-12-12T04:48:31.798Z,0
2018-12-12T04:49:12.614Z,0
2018-12-12T04:49:53.370Z,0
2018-12-12T04:50:34.199Z,0
2018-12-12T04:51:14.921Z,0
2018-12-12T04:51:55.656Z,0
2018-12-12T04:52:36.397Z,0
2018-12-12T04:53:17.143Z,0
2018-12-12T04:53:57.963Z,0
2018-12-12T04:54:38.702Z,0
2018-12-12T04:55:19.477Z,0
2018-12-12T04:56:00.293Z,0
2018-12-12T04:56:41.098Z,0
2018-12-12T04:57:21.863Z,0
2018-12-12T04:58:02.574Z,0
2018-12-12T04:58:43.287Z,0
2018-12-12T04:59:24.100Z,0
2018-12-12T05:00:04.820Z,0
2018-12-12T05:00:45.536Z,0
2018-12-12T05:01:26.279Z,0
2018-12-12T05:02:07.140Z,0
2018-12-12T05:02:47.848Z,0
2018-12-12T05:03:28.567Z,0
2018-12-12T05:04:09.324Z,0
2018-12-12T05:04:50.155Z,0
2018-12-12T05:05:30.939Z,0
2018-12-12T05:06:11.736Z,0
2018-12-12T05:06:52.459Z,0
2018-12-12T05:07:33.172Z,0
2018-12-12T05:08:13.898Z,0
2018-12-12T05:08:54.797Z,0
2018-12-12T05:09:35.576Z,0
2018-12-12T05:10:16.538Z,0
2018-12-12T05:10:57.262Z,0
2018-12-12T05:11:38.003Z,0
2018-12-12T05:12:18.819Z,0
2018-12-12T05:12:59.568Z,0
2018-12-12T05:13:40.305Z,0
2018-12-12T05:14:21.020Z,0
2018-12-12T05:15:01.767Z,0
2018-12-12T05:15:42.552Z,0
2018-12-12T05:16:23.379Z,0
2018-12-12T05:17:04.227Z,0
2018-12-12T05:17:44.960Z,0
2018-12-12T05:18:25.646Z,0
2018-12-12T05:19:06.375Z,0
2018-12-12T05:19:47.215Z,0
2018-12-12T05:20:28.006Z,0
2018-12-12T05:21:08.754Z,0
2018-12-12T05:21:49.513Z,0
2018-12-12T05:22:30.336Z,0
2018-12-12T05:23:11.120Z,0
2018-12-12T05:23:51.878Z,0
2018-12-12T05:24:32.590Z,0
2018-12-12T05:25:13.273Z,0
2018-12-12T05:25:54.060Z,0
2018-12-12T05:26:34.850Z,0
2018-12-12T05:27:15.646Z,0
2018-12-12T05:27:56.431Z,0
2018-12-12T05:28:37.158Z,0
2018-12-12T05:29:17.914Z,0
2018-12-12T05:29:58.743Z,0
2018-12-12T05:30:39.412Z,0
2018-12-12T05:31:20.165Z,0
2018-12-12T05:32:00.880Z,0
2018-12-12T05:32:41.662Z,0
2018-12-12T05:33:22.500Z,0
2018-12-12T05:34:03.233Z,0
2018-12-12T05:34:43.953Z,0
2018-12-12T05:35:24.765Z,0
2018-12-12T05:36:05.520Z,0
2018-12-12T05:36:46.328Z,0
2018-12-12T05:37:27.086Z,0
2018-12-12T05:38:07.876Z,0
2018-12-12T05:38:48.674Z,0
2018-12-12T05:39:29.360Z,0
2018-12-12T05:40:10.050Z,0
2018-12-12T05:40:50.782Z,0
2018-12-12T05:41:31.571Z,0
2018-12-12T05:42:12.396Z,0
2018-12-12T05:42:53.173Z,0
2018-12-12T05:43:33.893Z,0
2018-12-12T05:44:14.610Z,0
2018-12-12T05:44:55.407Z,0
2018-12-12T05:45:36.166Z,0
2018-12-12T05:46:16.992Z,0
2018-12-12T05:46:57.709Z,0
2018-12-12T05:47:38.511Z,0
2018-12-12T05:48:19.335Z,0
2018-12-12T05:49:00.137Z,0
2018-12-12T05:49:40.941Z,0
2018-12-12T05:50:21.697Z,0
2018-12-12T05:51:02.458Z,0
2018-12-12T05:51:43.187Z,0
2018-12-12T05:52:23.941Z,0
2018-12-12T05:53:04.787Z,0
2018-12-12T05:53:45.595Z,0
2018-12-12T05:54:26.379Z,0
2018-12-12T05:55:07.109Z,0
2018-12-12T05:55:47.881Z,0
2018-12-12T05:56:28.675Z,0
2018-12-12T05:57:09.423Z,0
2018-12-12T05:57:50.204Z,0
2018-12-12T05:58:30.961Z,0
2018-12-12T05:59:11.776Z,0
2018-12-12T05:59:52.516Z,0
2018-12-12T06:00:33.327Z,0
2018-12-12T06:01:14.064Z,0
2018-12-12T06:01:54.840Z,0
2018-12-12T06:02:35.576Z,0
2018-12-12T06:03:16.355Z,0
2018-12-12T06:03:57.209Z,0
2018-12-12T06:04:37.896Z,0
2018-12-12T06:05:18.651Z,0
2018-12-12T06:05:59.476Z,0
2018-12-12T06:06:40.236Z,0
2018-12-12T06:07:21.046Z,0
2018-12-12T06:08:01.731Z,0
2018-12-12T06:08:42.514Z,0
2018-12-12T06:09:23.316Z,0
2018-12-12T06:10:04.038Z,0
2018-12-12T06:10:44.758Z,0
2018-12-12T06:11:25.501Z,0
2018-12-12T06:12:06.351Z,0
2018-12-12T06:12:47.154Z,0
2018-12-12T06:13:27.852Z,0
2018-12-12T06:14:08.655Z,0
2018-12-12T06:14:49.438Z,0
2018-12-12T06:15:30.300Z,0
2018-12-12T06:16:11.083Z,0
2018-12-12T06:16:51.825Z,0
2018-12-12T06:17:32.540Z,0
2018-12-12T06:18:13.300Z,0
2018-12-12T06:18:54.137Z,0
2018-12-12T06:19:34.869Z,0
2018-12-12T06:20:15.621Z,0
2018-12-12T06:20:56.358Z,0
2018-12-12T06:21:37.097Z,0
2018-12-12T06:22:17.881Z,0
2018-12-12T06:23:00.028Z,0
2018-12-12T06:23:39.330Z,0
2018-12-12T06:24:20.038Z,0
2018-12-12T06:25:00.791Z,0
2018-12-12T06:25:41.697Z,0
2018-12-12T06:26:22.350Z,0
2018-12-12T06:27:03.113Z,0
2018-12-12T06:27:43.911Z,0
2018-12-12T06:28:24.707Z,0
2018-12-12T06:29:05.447Z,0
2018-12-12T06:29:46.158Z,0
2018-12-12T06:30:26.986Z,0
2018-12-12T06:31:07.802Z,0
2018-12-12T06:31:48.569Z,0
2018-12-12T06:32:29.316Z,0
2018-12-12T06:33:10.038Z,0
2018-12-12T06:33:50.886Z,0
2018-12-12T06:34:31.643Z,0
2018-12-12T06:35:12.417Z,0
2018-12-12T06:35:53.180Z,0
2018-12-12T06:36:33.841Z,0
2018-12-12T06:37:14.564Z,0
2018-12-12T06:37:55.300Z,0
2018-12-12T06:38:36.069Z,0
2018-12-12T06:39:16.869Z,0
2018-12-12T06:39:57.628Z,0
2018-12-12T06:40:38.456Z,0
2018-12-12T06:41:19.221Z,0
2018-12-12T06:42:00.002Z,0
2018-12-12T06:42:40.731Z,0
2018-12-12T06:43:21.501Z,0
2018-12-12T06:44:02.294Z,0
2018-12-12T06:44:43.012Z,0
2018-12-12T06:45:23.727Z,0
2018-12-12T06:46:04.425Z,0
2018-12-12T06:46:45.267Z,0
2018-12-12T06:47:26.014Z,0
2018-12-12T06:48:06.737Z,0
2018-12-12T06:48:47.508Z,0
2018-12-12T06:49:28.281Z,0
2018-12-12T06:50:09.144Z,0
2018-12-12T06:50:49.886Z,0
2018-12-12T06:51:30.590Z,0
2018-12-12T06:52:11.335Z,4
2018-12-12T06:52:52.149Z,4
2018-12-12T06:53:32.894Z,0
2018-12-12T06:54:13.652Z,0
2018-12-12T06:54:54.453Z,0
2018-12-12T06:55:35.189Z,4
2018-12-12T06:56:15.993Z,4
2018-12-12T06:56:56.732Z,4
2018-12-12T06:57:37.510Z,0
2018-12-12T06:58:18.212Z,4
2018-12-12T06:58:58.940Z,4
2018-12-12T06:59:39.687Z,4
2018-12-12T07:00:20.496Z,4
2018-12-12T07:01:01.299Z,4
2018-12-12T07:01:42.082Z,4
2018-12-12T07:02:22.792Z,8
2018-12-12T07:04:38.296Z,8
2018-12-12T07:05:19.164Z,8
2018-12-12T07:05:59.912Z,8
2018-12-12T07:06:40.691Z,12
2018-12-12T07:07:21.437Z,8
2018-12-12T07:08:02.152Z,12
2018-12-12T07:08:42.919Z,12
2018-12-12T07:09:23.670Z,12
2018-12-12T07:10:04.441Z,12
2018-12-12T07:10:45.239Z,16
2018-12-12T07:11:26.082Z,16
2018-12-12T07:12:06.968Z,16
2018-12-12T07:12:47.648Z,16
2018-12-12T07:13:28.351Z,16
2018-12-12T07:14:09.062Z,20
2018-12-12T07:14:49.844Z,20
2018-12-12T07:15:30.661Z,20
2018-12-12T07:16:11.518Z,20
2018-12-12T07:16:52.275Z,24
2018-12-12T07:17:32.974Z,28
2018-12-12T07:18:13.723Z,28
2018-12-12T07:18:54.517Z,28
2018-12-12T07:19:35.269Z,28
2018-12-12T07:20:15.962Z,32
2018-12-12T07:20:56.757Z,32
2018-12-12T07:21:37.519Z,36
2018-12-12T07:22:18.378Z,36
2018-12-12T07:22:59.219Z,36
2018-12-12T07:23:39.945Z,40
2018-12-12T07:24:20.670Z,40
2018-12-12T07:25:01.401Z,44
2018-12-12T07:25:42.208Z,40
2018-12-12T07:26:23.055Z,44
2018-12-12T07:27:03.785Z,48
2018-12-12T07:27:44.555Z,48
2018-12-12T07:28:25.415Z,52
2018-12-12T07:29:06.168Z,52
2018-12-12T07:29:46.968Z,56
2018-12-12T07:30:27.709Z,56
2018-12-12T07:31:08.410Z,60
2018-12-12T07:31:49.161Z,60
2018-12-12T07:32:29.935Z,64
2018-12-12T07:33:10.710Z,64
2018-12-12T07:33:51.523Z,68
2018-12-12T07:34:32.180Z,68
2018-12-12T07:35:12.960Z,72
2018-12-12T07:35:59.282Z,72
2018-12-12T07:36:34.542Z,76
2018-12-12T07:37:15.234Z,76
2018-12-12T07:37:55.974Z,76
2018-12-12T07:38:36.743Z,80
2018-12-12T07:39:18.003Z,80
2018-12-12T07:39:58.297Z,84
2018-12-12T07:40:39.071Z,84
2018-12-12T07:41:19.918Z,88
2018-12-12T07:42:00.680Z,88
2018-12-12T07:42:41.505Z,92
2018-12-12T07:43:22.221Z,96
2018-12-12T07:44:02.996Z,96
2018-12-12T07:44:43.808Z,100
2018-12-12T07:45:24.493Z,96
2018-12-12T07:46:05.173Z,100
2018-12-12T07:46:45.932Z,100
2018-12-12T07:47:26.702Z,104
2018-12-12T07:48:07.593Z,104
2018-12-12T07:48:48.387Z,108
2018-12-12T07:49:29.212Z,108
2018-12-12T07:50:09.888Z,108
2018-12-12T07:50:50.615Z,108
2018-12-12T07:51:31.346Z,108
2018-12-12T07:52:12.310Z,116
2018-12-12T07:52:52.918Z,116
2018-12-12T07:53:33.635Z,116
2018-12-12T07:54:14.439Z,120
2018-12-12T07:54:55.203Z,120
2018-12-12T07:55:36.027Z,124
2018-12-12T07:56:16.750Z,128
2018-12-12T07:56:57.486Z,124
2018-12-12T07:57:38.173Z,128
2018-12-12T07:58:18.977Z,128
2018-12-12T07:58:59.702Z,132
2018-12-12T07:59:40.485Z,132
2018-12-12T08:00:21.209Z,136
2018-12-12T08:01:02.644Z,136
2018-12-12T08:01:42.681Z,140
2018-12-12T08:02:23.427Z,136
2018-12-12T08:03:05.592Z,140
2018-12-12T08:03:44.889Z,140
2018-12-12T08:04:25.616Z,144
2018-12-12T08:05:06.428Z,144
2018-12-12T08:05:47.193Z,144
2018-12-12T08:06:27.967Z,144
2018-12-12T08:07:08.707Z,144
2018-12-12T08:07:49.422Z,148
2018-12-12T08:08:30.126Z,148
2018-12-12T08:09:10.914Z,148
2018-12-12T08:09:51.623Z,152
2018-12-12T08:10:32.324Z,152
2018-12-12T08:11:13.075Z,156
2018-12-12T08:11:53.827Z,156
2018-12-12T08:12:34.648Z,156
2018-12-12T08:13:15.436Z,156
2018-12-12T08:13:56.164Z,156
2018-12-12T08:14:37.043Z,160
2018-12-12T08:15:17.826Z,160
2018-12-12T08:15:58.564Z,164
2018-12-12T08:16:39.327Z,168
2018-12-12T08:17:20.061Z,168
2018-12-12T08:18:00.891Z,172
2018-12-12T08:18:41.625Z,172
2018-12-12T08:19:22.366Z,172
2018-12-12T08:20:03.145Z,176
2018-12-12T08:20:43.902Z,176
2018-12-12T08:21:24.717Z,176
2018-12-12T08:22:06.321Z,180
2018-12-12T08:22:46.203Z,180
2018-12-12T08:23:26.879Z,180
2018-12-12T08:24:07.632Z,184
2018-12-12T08:24:48.474Z,184
2018-12-12T08:25:29.286Z,184
2018-12-12T08:26:10.039Z,188
2018-12-12T08:26:50.755Z,188
2018-12-12T08:27:31.523Z,192
2018-12-12T08:28:12.321Z,192
2018-12-12T08:28:53.069Z,192
2018-12-12T08:29:33.794Z,192
2018-12-12T08:30:14.502Z,196
2018-12-12T08:30:55.274Z,200
2018-12-12T08:31:36.050Z,200
2018-12-12T08:32:16.835Z,200
2018-12-12T08:32:57.565Z,200
2018-12-12T08:33:38.278Z,204
2018-12-12T08:34:18.976Z,204
2018-12-12T08:34:59.705Z,204
2018-12-12T08:35:40.499Z,204
2018-12-12T08:36:21.245Z,208
2018-12-12T08:37:02.007Z,208
2018-12-12T08:37:42.845Z,212
2018-12-12T08:38:23.642Z,208
2018-12-12T08:39:04.446Z,216
2018-12-12T08:39:45.132Z,216
2018-12-12T08:40:25.854Z,212
2018-12-12T08:41:06.623Z,212
2018-12-12T08:41:47.473Z,216
2018-12-12T08:42:28.221Z,216
2018-12-12T08:43:09.029Z,216
2018-12-12T08:43:49.759Z,216
2018-12-12T08:44:30.481Z,220
2018-12-12T08:45:11.333Z,220
2018-12-12T08:45:52.055Z,220
2018-12-12T08:46:32.755Z,224
2018-12-12T08:47:13.485Z,224
2018-12-12T08:47:54.238Z,228
2018-12-12T08:48:35.060Z,228
2018-12-12T08:49:15.809Z,228
2018-12-12T08:49:56.577Z,228
2018-12-12T08:50:37.374Z,228
2018-12-12T08:51:18.106Z,232
2018-12-12T08:51:58.939Z,232
2018-12-12T08:52:39.707Z,232
2018-12-12T08:53:20.455Z,232
2018-12-12T08:54:01.270Z,236
2018-12-12T08:54:42.019Z,236
2018-12-12T08:55:22.747Z,240
2018-12-12T08:56:03.493Z,244
2018-12-12T08:56:44.185Z,240
2018-12-12T08:57:25.000Z,248
2018-12-12T08:58:05.846Z,252
2018-12-12T08:58:46.644Z,252
2018-12-12T08:59:27.364Z,256
2018-12-12T09:00:08.104Z,256
2018-12-12T09:00:48.868Z,260
2018-12-12T09:01:29.706Z,260
2018-12-12T09:02:10.468Z,264
2018-12-12T09:02:51.133Z,264
2018-12-12T09:03:31.943Z,268
2018-12-12T09:04:12.714Z,268
2018-12-12T09:04:53.514Z,268
2018-12-12T09:05:34.210Z,268
2018-12-12T09:06:14.966Z,268
2018-12-12T09:06:55.776Z,272
2018-12-12T09:07:36.499Z,272
2018-12-12T09:08:17.244Z,276
2018-12-12T09:08:57.921Z,276
2018-12-12T09:09:38.711Z,276
2018-12-12T09:10:19.502Z,280
2018-12-12T09:11:00.298Z,284
2018-12-12T09:11:41.047Z,284
2018-12-12T09:12:21.915Z,284
2018-12-12T09:13:02.694Z,284
2018-12-12T09:13:43.495Z,284
2018-12-12T09:14:24.245Z,288
2018-12-12T09:15:04.967Z,288
2018-12-12T09:15:45.687Z,292
2018-12-12T09:16:26.505Z,292
2018-12-12T09:17:09.732Z,296
2018-12-12T09:17:48.048Z,296
2018-12-12T09:18:28.807Z,296
2018-12-12T09:19:09.590Z,300
2018-12-12T09:19:50.394Z,300
2018-12-12T09:20:31.145Z,304
2018-12-12T09:21:11.882Z,304
2018-12-12T09:21:52.583Z,304
2018-12-12T09:22:33.356Z,308
2018-12-12T09:23:14.160Z,312
2018-12-12T09:23:54.900Z,312
2018-12-12T09:24:35.604Z,312
2018-12-12T09:25:16.422Z,316
2018-12-12T09:25:57.193Z,316
2018-12-12T09:26:37.969Z,316
2018-12-12T09:27:18.776Z,316
2018-12-12T09:27:59.531Z,316
2018-12-12T09:28:40.414Z,316
2018-12-12T09:29:21.176Z,320
2018-12-12T09:30:01.877Z,324
2018-12-12T09:30:42.596Z,324
2018-12-12T09:31:23.352Z,324
2018-12-12T09:32:04.142Z,324
2018-12-12T09:32:44.932Z,332
2018-12-12T09:33:26.293Z,336
2018-12-12T09:34:06.468Z,332
2018-12-12T09:34:47.211Z,336
2018-12-12T09:35:27.909Z,332
2018-12-12T09:36:08.705Z,332
2018-12-12T09:36:49.484Z,332
2018-12-12T09:37:30.234Z,336
2018-12-12T09:38:11.000Z,336
2018-12-12T09:38:51.760Z,340
2018-12-12T09:39:32.526Z,340
2018-12-12T09:40:13.248Z,344
2018-12-12T09:40:54.010Z,348
2018-12-12T09:41:34.767Z,348
2018-12-12T09:42:15.549Z,348
2018-12-12T09:42:56.300Z,352
2018-12-12T09:43:37.111Z,352
2018-12-12T09:44:17.879Z,352
2018-12-12T09:44:58.587Z,356
2018-12-12T09:45:39.423Z,360
2018-12-12T09:46:20.213Z,356
2018-12-12T09:47:00.977Z,356
2018-12-12T09:47:41.672Z,356
2018-12-12T09:48:22.411Z,352
2018-12-12T09:49:03.207Z,356
2018-12-12T09:49:43.949Z,352
2018-12-12T09:50:24.785Z,352
2018-12-12T09:51:07.204Z,352
2018-12-12T09:51:46.279Z,352
2018-12-12T09:52:27.064Z,352
2018-12-12T09:53:07.811Z,360
2018-12-12T09:53:48.585Z,356